Time;durP1;ratioP1;P1;durP2;ratioP2;P2;SDS_P1;SDS_P2;PMS_P1;PMS_P2;Temp;Humidity;BMP_temperature;BMP_pressure;BME280_temperature;BME280_humidity;BME280_pressure;Samples;Min_cycle;Max_cycle;Signal;HPM_P1;HPM_P2
2022/12/04 00:02:19;;;;;;;32.17;14.33;;;2.40;99.90;;;;;;5029943;28;20224;-72
2022/12/04 00:04:45;;;;;;;28.33;15.17;;;2.40;99.90;;;;;;5030581;28;20455;-70
2022/12/04 00:07:10;;;;;;;25.67;14.30;;;2.40;99.90;;;;;;5029170;28;20215;-72
2022/12/04 00:09:36;;;;;;;28.00;15.23;;;2.40;99.90;;;;;;5030515;28;20208;-72
2022/12/04 00:12:01;;;;;;;27.03;14.27;;;2.40;99.90;;;;;;5030393;28;20685;-71
2022/12/04 00:14:27;;;;;;;28.67;14.80;;;2.40;99.90;;;;;;5029502;28;20633;-71
2022/12/04 00:16:52;;;;;;;28.47;14.33;;;2.40;99.90;;;;;;5029287;28;20216;-72
2022/12/04 00:19:18;;;;;;;22.90;13.53;;;2.40;99.90;;;;;;5030215;28;20237;-71
2022/12/04 00:21:44;;;;;;;21.20;12.63;;;2.40;99.90;;;;;;5029857;28;20703;-68
2022/12/04 00:24:10;;;;;;;31.30;14.47;;;2.40;99.90;;;;;;5029886;28;20447;-71
2022/12/04 00:26:35;;;;;;;24.20;13.47;;;2.40;99.90;;;;;;5029394;28;20511;-72
2022/12/04 00:29:01;;;;;;;30.37;14.50;;;2.40;99.90;;;;;;5030260;28;20200;-71
2022/12/04 00:31:29;;;;;;;29.37;13.80;;;2.40;99.90;;;;;;5029425;28;20221;-72
2022/12/04 00:33:55;;;;;;;29.30;14.27;;;2.40;99.90;;;;;;5029443;28;20208;-72
2022/12/04 00:36:23;;;;;;;28.87;13.23;;;2.40;99.90;;;;;;5029823;28;20471;-72
2022/12/04 00:38:49;;;;;;;25.47;12.63;;;2.40;99.90;;;;;;5029441;28;20474;-71
2022/12/04 00:41:17;;;;;;;27.50;14.20;;;2.40;99.90;;;;;;5029889;28;20484;-72
2022/12/04 00:43:42;;;;;;;24.87;13.77;;;2.40;99.90;;;;;;5028613;28;20499;-70
2022/12/04 00:46:08;;;;;;;29.53;13.73;;;2.30;99.90;;;;;;5037733;28;20450;-69
2022/12/04 00:48:34;;;;;;;28.53;12.33;;;2.40;99.90;;;;;;5028294;28;20224;-72
2022/12/04 00:51:02;;;;;;;24.63;12.63;;;2.40;99.90;;;;;;5028306;28;20499;-73
2022/12/04 00:53:28;;;;;;;27.27;14.20;;;2.40;99.90;;;;;;5029335;28;20234;-73
2022/12/04 00:55:53;;;;;;;26.30;13.57;;;2.40;99.90;;;;;;5029970;28;20827;-71
2022/12/04 00:58:19;;;;;;;22.63;11.90;;;2.40;99.90;;;;;;5029647;28;20238;-72
2022/12/04 01:00:44;;;;;;;24.00;13.40;;;2.40;99.90;;;;;;5030460;28;20189;-70
2022/12/04 01:03:10;;;;;;;29.47;13.93;;;2.40;99.90;;;;;;5030021;28;20212;-72
2022/12/04 01:05:44;;;;;;;22.00;13.50;;;2.40;99.90;;;;;;5011665;28;20190;-71
2022/12/04 01:08:10;;;;;;;33.23;14.70;;;2.40;99.90;;;;;;5028768;28;20423;-72
2022/12/04 01:10:40;;;;;;;28.10;13.37;;;2.40;99.90;;;;;;5029798;28;20431;-72
2022/12/04 01:13:06;;;;;;;29.30;15.60;;;2.40;99.90;;;;;;5030009;28;20926;-70
2022/12/04 01:15:32;;;;;;;29.97;13.07;;;2.40;99.90;;;;;;5029952;28;20407;-72
2022/12/04 01:17:57;;;;;;;30.17;14.73;;;2.40;99.90;;;;;;5030005;28;20180;-72
2022/12/04 01:20:23;;;;;;;25.30;13.37;;;2.40;99.90;;;;;;5029697;28;20212;-72
2022/12/04 01:22:49;;;;;;;30.30;14.03;;;2.40;99.90;;;;;;5029857;28;20268;-70
2022/12/04 01:25:14;;;;;;;26.90;14.40;;;2.40;99.90;;;;;;5035548;28;20428;-72
2022/12/04 01:27:40;;;;;;;31.93;14.20;;;2.50;99.90;;;;;;5036015;28;20180;-72
2022/12/04 01:30:06;;;;;;;26.40;13.13;;;2.50;99.90;;;;;;5036262;28;20177;-71
2022/12/04 01:32:31;;;;;;;37.47;15.77;;;2.50;99.90;;;;;;5018524;28;20223;-72
2022/12/04 01:34:57;;;;;;;25.87;13.80;;;2.50;99.90;;;;;;5036779;28;20447;-72
2022/12/04 01:37:23;;;;;;;26.10;13.77;;;2.50;99.90;;;;;;5035885;28;20176;-72
2022/12/04 01:39:48;;;;;;;28.03;13.97;;;2.50;99.90;;;;;;5036592;28;20187;-69
2022/12/04 01:42:14;;;;;;;27.97;14.07;;;2.50;99.90;;;;;;5036505;28;20235;-72
2022/12/04 01:44:43;;;;;;;26.10;13.60;;;2.50;99.90;;;;;;5036101;28;20179;-72
2022/12/04 01:47:09;;;;;;;23.40;13.60;;;2.50;99.90;;;;;;5035836;28;20414;-70
2022/12/04 01:49:40;;;;;;;29.30;13.00;;;2.50;99.90;;;;;;5036397;28;20396;-72
2022/12/04 01:52:16;;;;;;;33.20;14.23;;;2.50;99.90;;;;;;5036824;28;20425;-72
2022/12/04 01:54:45;;;;;;;30.00;14.10;;;2.50;99.90;;;;;;5036095;28;20418;-73
2022/12/04 01:57:16;;;;;;;28.07;14.33;;;2.50;99.90;;;;;;5035684;28;20429;-73
2022/12/04 01:59:50;;;;;;;31.80;14.97;;;2.50;99.90;;;;;;5036605;28;20397;-72
2022/12/04 03:33:09;;;;;;;32.53;17.27;;;2.50;99.90;;;;;;5167988;23;20512;-71
2022/12/04 03:35:44;;;;;;;32.83;16.77;;;2.60;99.90;;;;;;5003636;28;20448;-71
2022/12/04 03:38:28;;;;;;;32.00;18.23;;;2.60;99.90;;;;;;5014119;28;20418;-70
2022/12/04 03:41:02;;;;;;;29.83;17.30;;;2.50;99.90;;;;;;5011442;28;20447;-71
2022/12/04 03:43:40;;;;;;;29.63;16.40;;;2.50;99.90;;;;;;5013150;28;20444;-71
2022/12/04 03:46:16;;;;;;;28.70;16.30;;;2.60;99.90;;;;;;5010786;28;20437;-70
2022/12/04 03:48:49;;;;;;;38.70;18.03;;;2.50;99.90;;;;;;5000543;28;20412;-70
2022/12/04 03:51:45;;;;;;;32.77;16.97;;;2.50;99.90;;;;;;5000604;28;20460;-71
2022/12/04 03:54:16;;;;;;;33.83;17.27;;;2.60;99.90;;;;;;4994892;28;20428;-71
2022/12/04 03:56:46;;;;;;;31.30;17.57;;;2.60;99.90;;;;;;5005934;28;20443;-71
2022/12/04 03:59:19;;;;;;;25.57;15.30;;;2.60;99.90;;;;;;5013741;28;20420;-71
2022/12/04 04:01:48;;;;;;;25.43;15.07;;;2.60;99.90;;;;;;5008934;28;20978;-70
2022/12/04 04:04:20;;;;;;;26.00;15.00;;;2.70;99.90;;;;;;5013593;28;20406;-71
2022/12/04 04:06:55;;;;;;;25.00;15.87;;;2.60;99.90;;;;;;5008741;28;20408;-69
2022/12/04 04:09:24;;;;;;;30.20;15.47;;;2.60;99.90;;;;;;5012793;28;20405;-70
2022/12/04 04:12:14;;;;;;;32.73;16.47;;;2.60;99.90;;;;;;5010483;28;20463;-71
2022/12/04 04:26:10;;;;;;;31.00;16.03;;;2.60;99.90;;;;;;5013073;28;20491;-71
2022/12/04 04:28:38;;;;;;;29.43;16.73;;;2.60;99.90;;;;;;5011988;28;20925;-71
2022/12/04 04:31:23;;;;;;;32.63;17.83;;;2.60;99.90;;;;;;5012246;28;20460;-72
2022/12/04 04:33:59;;;;;;;26.53;17.00;;;2.60;99.90;;;;;;5005689;28;21012;-71
2022/12/04 04:36:47;;;;;;;30.50;17.27;;;2.60;99.90;;;;;;5010104;28;20438;-71
2022/12/04 04:39:38;;;;;;;31.27;15.20;;;2.60;99.90;;;;;;5010347;28;20528;-71
2022/12/04 04:42:27;;;;;;;29.10;15.60;;;2.60;99.90;;;;;;5012025;28;20437;-71
2022/12/04 04:45:06;;;;;;;34.50;19.33;;;2.50;99.90;;;;;;4995902;28;20447;-71
2022/12/04 04:47:43;;;;;;;32.23;17.37;;;2.60;99.90;;;;;;5011874;28;20413;-70
2022/12/04 04:50:10;;;;;;;32.60;15.47;;;2.60;99.90;;;;;;5011593;28;20778;-70
2022/12/04 04:52:39;;;;;;;33.63;17.33;;;2.60;99.90;;;;;;5010399;28;20442;-71
2022/12/04 04:55:06;;;;;;;28.57;15.17;;;2.60;99.90;;;;;;5008862;28;20439;-71
2022/12/04 04:57:34;;;;;;;33.03;16.17;;;2.60;99.90;;;;;;5010840;28;20397;-71
2022/12/04 05:00:08;;;;;;;32.93;16.83;;;2.70;99.90;;;;;;5009409;28;20430;-71
2022/12/04 05:02:34;;;;;;;32.43;17.00;;;2.70;99.90;;;;;;5011703;28;20829;-71
2022/12/04 05:04:59;;;;;;;26.47;17.40;;;2.60;99.90;;;;;;5009790;28;20421;-71
2022/12/04 05:07:25;;;;;;;30.70;15.77;;;2.60;99.90;;;;;;5006399;28;20199;-71
2022/12/04 05:09:50;;;;;;;29.77;16.77;;;2.70;99.90;;;;;;4994338;28;20211;-71
2022/12/04 05:12:16;;;;;;;31.20;17.00;;;2.60;99.90;;;;;;5009897;28;20208;-70
2022/12/04 05:14:41;;;;;;;28.27;16.07;;;2.60;99.90;;;;;;5011911;28;20224;-71
2022/12/04 05:17:07;;;;;;;27.47;16.83;;;2.60;99.90;;;;;;5011515;28;20177;-71
2022/12/04 05:22:19;;;;;;;29.70;16.30;;;2.70;99.90;;;;;;5005789;28;20746;-71
2022/12/04 05:24:44;;;;;;;29.30;17.67;;;2.60;99.90;;;;;;5011680;28;20445;-71
2022/12/04 05:27:10;;;;;;;30.90;15.87;;;2.70;99.90;;;;;;5009278;28;20443;-70
2022/12/04 05:29:36;;;;;;;30.33;16.63;;;2.60;99.90;;;;;;5011498;28;20183;-70
2022/12/04 05:32:01;;;;;;;31.10;15.93;;;2.60;99.90;;;;;;5009362;28;20226;-71
2022/12/04 05:34:27;;;;;;;26.90;15.07;;;2.60;99.90;;;;;;5000773;28;20278;-71
2022/12/04 05:36:52;;;;;;;32.50;15.60;;;2.60;99.90;;;;;;5009598;28;20193;-71
2022/12/04 05:39:18;;;;;;;27.73;16.50;;;2.60;99.90;;;;;;5009483;28;20185;-71
2022/12/04 05:41:43;;;;;;;32.53;16.87;;;2.50;99.90;;;;;;5011472;28;20300;-71
2022/12/04 05:44:09;;;;;;;30.67;16.30;;;2.60;99.90;;;;;;4993913;28;20194;-71
2022/12/04 05:46:34;;;;;;;27.97;15.70;;;2.60;99.90;;;;;;5010325;28;20585;-71
2022/12/04 05:49:00;;;;;;;27.57;15.80;;;2.60;99.90;;;;;;5008641;28;20191;-71
2022/12/04 05:51:25;;;;;;;34.57;16.13;;;2.60;99.90;;;;;;4992423;28;20245;-71
2022/12/04 05:53:51;;;;;;;27.43;15.53;;;2.60;99.90;;;;;;5009214;28;20571;-72
2022/12/04 05:56:17;;;;;;;23.10;14.23;;;2.50;99.90;;;;;;5011630;28;20212;-73
2022/12/04 05:58:42;;;;;;;24.93;14.70;;;2.50;99.90;;;;;;5011289;28;20668;-73
2022/12/04 06:01:13;;;;;;;30.70;15.23;;;2.50;99.90;;;;;;5011466;28;20656;-73
2022/12/04 06:03:39;;;;;;;27.77;14.73;;;2.50;99.90;;;;;;5006892;28;20208;-73
2022/12/04 06:06:14;;;;;;;31.70;16.90;;;2.60;99.90;;;;;;5004984;28;20950;-72
2022/12/04 06:08:39;;;;;;;24.30;14.17;;;2.60;99.90;;;;;;5011024;28;20618;-73
2022/12/04 06:11:16;;;;;;;24.73;14.77;;;2.60;99.90;;;;;;5010352;28;20474;-73
2022/12/04 06:13:43;;;;;;;26.50;15.83;;;2.60;99.90;;;;;;5014649;28;20183;-72
2022/12/04 06:16:18;;;;;;;27.43;14.83;;;2.60;99.90;;;;;;5010924;28;20954;-72
2022/12/04 06:18:44;;;;;;;28.30;16.20;;;2.60;99.90;;;;;;5014441;28;20433;-72
2022/12/04 06:21:10;;;;;;;23.33;14.00;;;2.60;99.90;;;;;;5012757;28;20808;-72
2022/12/04 06:23:36;;;;;;;27.70;15.13;;;2.60;99.90;;;;;;5014681;28;20216;-71
2022/12/04 06:26:06;;;;;;;22.53;13.97;;;2.60;99.90;;;;;;5014703;28;20420;-72
2022/12/04 06:28:31;;;;;;;29.37;15.90;;;2.60;99.90;;;;;;5008947;28;20415;-72
2022/12/04 06:31:02;;;;;;;24.87;13.53;;;2.60;99.90;;;;;;5013537;28;20445;-72
2022/12/04 06:33:28;;;;;;;25.80;14.87;;;2.60;99.90;;;;;;5007534;28;20200;-73
2022/12/04 06:36:02;;;;;;;26.77;15.33;;;2.60;99.90;;;;;;5012412;28;20409;-73
2022/12/04 06:38:28;;;;;;;27.87;13.67;;;2.60;99.90;;;;;;5010027;28;20773;-72
2022/12/04 06:40:54;;;;;;;25.60;14.33;;;2.60;99.90;;;;;;5014440;28;20434;-72
2022/12/04 06:43:20;;;;;;;33.37;17.03;;;2.60;99.90;;;;;;5014351;28;20445;-72
2022/12/04 06:45:45;;;;;;;28.90;15.20;;;2.60;99.90;;;;;;5014244;28;20401;-72
2022/12/04 06:48:11;;;;;;;27.97;15.23;;;2.60;99.90;;;;;;5009844;28;20238;-73
2022/12/04 06:50:36;;;;;;;28.80;15.63;;;2.70;99.90;;;;;;5012548;28;20186;-70
2022/12/04 06:53:02;;;;;;;32.03;17.30;;;2.70;99.90;;;;;;5012399;28;20201;-71
2022/12/04 06:55:27;;;;;;;32.30;15.80;;;2.70;99.90;;;;;;5016488;28;20401;-71
2022/12/04 06:57:53;;;;;;;30.93;14.97;;;2.80;99.90;;;;;;5014190;28;20180;-71
2022/12/04 07:00:18;;;;;;;23.83;13.63;;;2.90;99.90;;;;;;5014346;28;20701;-71
2022/12/04 07:02:44;;;;;;;26.50;15.43;;;2.80;99.90;;;;;;5009749;28;20565;-71
2022/12/04 07:05:09;;;;;;;34.93;21.83;;;2.80;99.90;;;;;;5011736;28;20200;-71
2022/12/04 07:07:35;;;;;;;35.90;16.50;;;2.80;99.90;;;;;;5011483;28;20191;-71
2022/12/04 07:10:05;;;;;;;31.70;15.43;;;2.80;99.90;;;;;;5011750;28;20198;-70
2022/12/04 07:12:30;;;;;;;30.27;17.37;;;2.90;99.90;;;;;;5013687;28;20204;-71
2022/12/04 07:14:56;;;;;;;30.00;16.87;;;2.90;99.90;;;;;;5013891;28;20914;-71
2022/12/04 07:17:22;;;;;;;30.83;15.93;;;2.90;99.90;;;;;;5009618;28;20176;-70
2022/12/04 07:19:47;;;;;;;32.43;16.63;;;2.90;99.90;;;;;;5011918;28;20487;-70
2022/12/04 07:22:13;;;;;;;30.10;17.00;;;2.90;99.90;;;;;;5008934;28;20736;-71
2022/12/04 07:24:38;;;;;;;30.13;15.50;;;2.90;99.90;;;;;;5013356;28;20247;-70
2022/12/04 07:27:04;;;;;;;27.17;15.00;;;2.90;99.90;;;;;;5013680;28;20167;-70
2022/12/04 07:29:29;;;;;;;34.23;16.50;;;2.90;99.90;;;;;;5013336;28;20256;-70
2022/12/04 07:31:55;;;;;;;24.57;14.80;;;2.90;99.90;;;;;;5007767;28;20244;-70
2022/12/04 07:34:20;;;;;;;25.03;13.93;;;2.90;99.90;;;;;;5006789;28;20193;-71
2022/12/04 07:36:46;;;;;;;33.10;15.30;;;2.90;99.90;;;;;;5011294;28;20553;-70
2022/12/04 07:39:12;;;;;;;28.53;15.93;;;2.90;99.90;;;;;;5013295;28;20176;-71
2022/12/04 07:41:37;;;;;;;25.20;13.87;;;2.90;99.90;;;;;;5011187;28;20604;-70
2022/12/04 07:44:03;;;;;;;30.53;16.20;;;2.90;99.90;;;;;;5011219;28;20185;-70
2022/12/04 07:46:28;;;;;;;28.30;14.93;;;2.90;99.90;;;;;;5011460;28;20177;-71
2022/12/04 07:48:56;;;;;;;25.40;13.60;;;2.90;99.90;;;;;;5004663;28;20550;-70
2022/12/04 07:51:24;;;;;;;34.97;15.60;;;2.90;99.90;;;;;;5010457;28;20569;-70
2022/12/04 07:53:52;;;;;;;29.77;15.70;;;2.90;99.90;;;;;;5010755;28;20461;-70
2022/12/04 07:56:18;;;;;;;29.50;14.50;;;2.90;99.90;;;;;;5012761;28;20422;-70
2022/12/04 07:58:44;;;;;;;28.93;15.20;;;2.90;99.90;;;;;;5010610;28;20414;-72
2022/12/04 08:01:27;;;;;;;26.90;14.43;;;2.90;99.90;;;;;;5012900;28;20427;-71
2022/12/04 08:03:56;;;;;;;24.50;13.30;;;2.90;99.90;;;;;;5002721;28;20479;-71
2022/12/04 08:06:24;;;;;;;21.50;13.83;;;2.90;99.90;;;;;;5009411;28;20483;-72
2022/12/04 08:08:50;;;;;;;26.57;13.80;;;2.90;99.90;;;;;;5011415;28;20536;-71
2022/12/04 08:11:19;;;;;;;27.17;15.20;;;2.90;99.90;;;;;;5011496;28;20490;-71
2022/12/04 08:13:45;;;;;;;30.60;14.90;;;3.00;99.90;;;;;;5009974;28;20449;-71
2022/12/04 08:16:12;;;;;;;29.30;14.27;;;3.00;99.90;;;;;;4992956;28;20452;-72
2022/12/04 08:18:39;;;;;;;27.13;15.50;;;3.10;99.90;;;;;;5010122;28;20684;-71
2022/12/04 08:21:08;;;;;;;29.03;15.17;;;3.00;99.90;;;;;;5005472;28;20515;-71
2022/12/04 08:23:35;;;;;;;29.03;16.20;;;3.00;99.90;;;;;;5007190;28;20536;-71
2022/12/04 08:26:01;;;;;;;26.87;14.90;;;3.10;99.90;;;;;;5011862;28;20462;-72
2022/12/04 08:28:27;;;;;;;25.23;14.47;;;3.00;99.90;;;;;;5009331;28;20967;-71
2022/12/04 08:30:53;;;;;;;33.47;16.50;;;3.10;99.90;;;;;;5009266;28;20529;-71
2022/12/04 08:33:18;;;;;;;28.47;16.33;;;3.10;99.90;;;;;;5008553;28;20462;-72
2022/12/04 08:35:44;;;;;;;32.40;16.37;;;3.00;99.90;;;;;;5007242;28;20227;-71
2022/12/04 08:38:09;;;;;;;26.87;14.70;;;3.10;99.90;;;;;;5006643;28;20285;-71
2022/12/04 08:40:35;;;;;;;26.40;14.40;;;3.10;99.90;;;;;;5009113;28;20293;-69
2022/12/04 08:43:00;;;;;;;24.37;13.10;;;3.00;99.90;;;;;;5008983;28;20262;-71
2022/12/04 08:45:26;;;;;;;28.23;14.50;;;3.10;99.90;;;;;;5011221;28;20243;-72
2022/12/04 08:47:51;;;;;;;33.90;15.73;;;3.10;99.90;;;;;;5009140;28;20249;-72
2022/12/04 08:50:17;;;;;;;31.60;16.67;;;3.10;99.90;;;;;;5011359;28;20250;-71
2022/12/04 08:52:42;;;;;;;31.30;15.93;;;3.10;99.90;;;;;;5006580;28;20217;-71
2022/12/04 08:55:09;;;;;;;29.20;15.20;;;3.10;99.90;;;;;;5010963;28;20203;-71
2022/12/04 08:57:35;;;;;;;30.90;15.23;;;3.10;99.90;;;;;;4998324;28;20618;-70
2022/12/04 09:00:00;;;;;;;36.70;17.63;;;3.10;99.90;;;;;;5000104;28;20452;-71
2022/12/04 09:02:26;;;;;;;31.90;18.17;;;3.10;99.90;;;;;;5004691;28;20251;-72
2022/12/04 09:04:52;;;;;;;30.63;18.20;;;3.10;99.90;;;;;;5010449;28;20259;-71
2022/12/04 09:07:17;;;;;;;27.87;15.77;;;3.00;99.90;;;;;;5000324;28;20192;-71
2022/12/04 09:09:43;;;;;;;27.43;14.63;;;3.10;99.90;;;;;;5009249;28;20187;-71
2022/12/04 09:12:08;;;;;;;63.70;32.87;;;3.10;99.90;;;;;;5011406;28;20204;-72
2022/12/04 09:14:34;;;;;;;32.60;15.40;;;3.10;99.90;;;;;;5009439;28;20188;-72
2022/12/04 09:17:00;;;;;;;26.37;14.07;;;3.10;99.90;;;;;;5012158;28;20172;-71
2022/12/04 09:19:25;;;;;;;23.77;14.00;;;3.10;99.90;;;;;;5011104;28;20432;-72
2022/12/04 09:21:51;;;;;;;60.30;25.33;;;3.10;99.90;;;;;;5003278;28;20217;-71
2022/12/04 09:24:16;;;;;;;30.10;14.77;;;3.20;99.90;;;;;;5005857;28;20734;-71
2022/12/04 09:26:42;;;;;;;32.57;15.03;;;3.20;99.90;;;;;;4992002;28;20221;-71
2022/12/04 09:29:10;;;;;;;66.27;26.80;;;3.20;99.90;;;;;;4991654;28;20199;-71
2022/12/04 09:31:36;;;;;;;268.50;76.30;;;3.20;99.90;;;;;;4991626;28;20257;-71
2022/12/04 09:34:01;;;;;;;240.90;76.67;;;3.30;99.90;;;;;;4999325;28;20967;-71
2022/12/04 09:36:27;;;;;;;45.23;21.80;;;3.30;99.90;;;;;;5009368;28;20649;-70
2022/12/04 09:38:54;;;;;;;69.50;30.47;;;3.40;99.90;;;;;;5011347;28;20261;-71
2022/12/04 09:41:46;;;;;;;30.20;16.17;;;3.30;99.90;;;;;;5009482;28;20255;-71
2022/12/04 09:44:26;;;;;;;28.20;14.93;;;3.30;99.90;;;;;;5011012;28;20402;-71
2022/12/04 09:46:57;;;;;;;23.90;14.37;;;3.30;99.90;;;;;;5015013;28;20446;-71
2022/12/04 09:49:29;;;;;;;25.23;14.03;;;3.30;99.90;;;;;;5011482;28;20414;-70
2022/12/04 09:51:59;;;;;;;30.23;15.07;;;3.30;99.90;;;;;;5011431;28;20498;-71
2022/12/04 09:54:31;;;;;;;26.93;14.93;;;3.20;99.90;;;;;;5015244;28;20416;-71
2022/12/04 09:57:07;;;;;;;30.33;15.43;;;3.30;99.90;;;;;;5013757;28;20442;-70
2022/12/04 09:59:33;;;;;;;36.53;18.87;;;3.40;99.90;;;;;;5014909;28;20810;-71
2022/12/04 10:02:15;;;;;;;86.97;34.17;;;3.40;99.90;;;;;;5013410;28;20474;-71
2022/12/04 10:04:40;;;;;;;111.43;41.27;;;3.40;99.90;;;;;;5013730;28;20280;-72
2022/12/04 10:07:15;;;;;;;35.80;18.70;;;3.40;99.90;;;;;;5009061;28;20923;-72
2022/12/04 10:09:54;;;;;;;27.53;15.77;;;3.40;99.90;;;;;;5014921;28;20733;-72
2022/12/04 10:12:37;;;;;;;30.03;14.90;;;3.30;99.90;;;;;;5014960;28;20830;-72
2022/12/04 10:15:18;;;;;;;28.20;14.93;;;3.40;99.90;;;;;;5014860;28;20395;-72
2022/12/04 10:18:14;;;;;;;29.87;15.37;;;3.40;99.90;;;;;;5010434;28;20456;-71
2022/12/04 10:20:58;;;;;;;28.30;15.87;;;3.40;99.90;;;;;;5014734;28;20453;-71
2022/12/04 10:23:44;;;;;;;27.13;16.63;;;3.50;99.90;;;;;;5011931;28;20492;-72
2022/12/04 10:26:14;;;;;;;32.23;16.80;;;3.50;99.90;;;;;;5015001;28;20880;-71
2022/12/04 10:29:02;;;;;;;30.50;15.50;;;3.60;99.90;;;;;;5014398;28;20423;-71
2022/12/04 10:31:29;;;;;;;26.83;15.77;;;3.60;99.90;;;;;;5011845;28;20966;-71
2022/12/04 10:34:01;;;;;;;29.80;17.07;;;3.60;99.90;;;;;;5008018;28;20465;-70
2022/12/04 10:36:33;;;;;;;33.43;16.73;;;3.50;99.90;;;;;;5008525;28;20473;-72
2022/12/04 10:39:05;;;;;;;31.50;17.13;;;3.50;99.90;;;;;;5011138;28;20510;-71
2022/12/04 10:41:50;;;;;;;34.13;17.03;;;3.50;99.90;;;;;;5003866;28;20462;-71
2022/12/04 10:44:18;;;;;;;29.47;18.53;;;3.50;99.90;;;;;;4994954;28;20782;-71
2022/12/04 10:46:43;;;;;;;25.90;15.23;;;3.50;99.90;;;;;;4994744;28;20395;-71
2022/12/04 10:49:18;;;;;;;32.80;17.63;;;3.40;99.90;;;;;;4995190;28;20930;-72
2022/12/04 10:51:44;;;;;;;32.80;17.63;;;3.40;99.90;;;;;;5006883;28;20237;-71
2022/12/04 10:54:32;;;;;;;32.23;18.07;;;3.40;99.90;;;;;;5014980;28;20405;-72
2022/12/04 10:57:00;;;;;;;28.50;17.73;;;3.30;99.90;;;;;;5013933;28;20925;-72
2022/12/04 10:59:28;;;;;;;31.00;16.93;;;3.30;99.90;;;;;;5013959;28;20979;-71
2022/12/04 11:01:59;;;;;;;33.07;15.30;;;3.30;99.90;;;;;;5010009;28;20472;-71
2022/12/04 11:04:26;;;;;;;27.00;16.43;;;3.30;99.90;;;;;;5014018;28;20491;-71
2022/12/04 11:07:28;;;;;;;31.10;15.80;;;3.30;99.90;;;;;;5011909;28;20955;-71
2022/12/04 11:10:02;;;;;;;29.60;15.30;;;3.30;99.90;;;;;;5000514;28;20507;-72
2022/12/04 11:12:28;;;;;;;34.70;16.50;;;3.40;99.90;;;;;;5007833;28;20862;-72
2022/12/04 11:15:19;;;;;;;37.23;17.47;;;3.40;99.90;;;;;;5014064;28;20518;-72
2022/12/04 11:17:45;;;;;;;32.73;17.43;;;3.40;99.90;;;;;;5007625;28;20464;-72
2022/12/04 11:20:23;;;;;;;29.60;16.23;;;3.30;99.90;;;;;;5013843;28;20408;-71
2022/12/04 11:22:53;;;;;;;26.57;13.97;;;3.40;99.90;;;;;;5009094;28;20217;-71
2022/12/04 11:25:21;;;;;;;29.30;15.70;;;3.40;99.90;;;;;;5005216;28;20435;-72
2022/12/04 11:27:53;;;;;;;29.90;16.00;;;3.40;99.90;;;;;;4995923;28;20432;-72
2022/12/04 11:30:25;;;;;;;30.17;14.47;;;3.30;99.90;;;;;;4994137;28;20623;-72
2022/12/04 11:32:52;;;;;;;28.63;15.80;;;3.30;99.90;;;;;;5003237;28;20476;-72
2022/12/04 11:35:22;;;;;;;28.90;14.60;;;3.30;99.90;;;;;;5009606;28;20820;-72
2022/12/04 11:38:14;;;;;;;27.43;15.47;;;3.40;99.90;;;;;;5006675;28;20444;-72
2022/12/04 11:40:49;;;;;;;26.07;13.70;;;3.40;99.90;;;;;;5004803;28;20433;-72
2022/12/04 11:43:16;;;;;;;30.73;15.10;;;3.40;99.90;;;;;;5013307;28;20546;-71
2022/12/04 11:45:56;;;;;;;30.33;15.90;;;3.50;99.90;;;;;;5011199;28;20445;-72
2022/12/04 11:48:22;;;;;;;24.60;14.63;;;3.40;99.90;;;;;;5013079;28;20424;-72
2022/12/04 11:51:23;;;;;;;29.17;14.10;;;3.40;99.90;;;;;;5012091;28;20419;-72
2022/12/04 11:53:59;;;;;;;28.10;14.40;;;3.40;99.90;;;;;;5004474;28;20238;-72
2022/12/04 11:56:31;;;;;;;28.33;14.50;;;3.40;99.90;;;;;;5013112;28;20809;-72
2022/12/04 11:59:21;;;;;;;28.23;14.33;;;3.40;99.90;;;;;;5013122;28;20479;-72
2022/12/04 12:02:12;;;;;;;28.80;14.33;;;3.40;99.90;;;;;;5011129;28;20495;-72
2022/12/04 12:05:07;;;;;;;26.67;14.03;;;3.40;99.90;;;;;;5012994;28;20415;-71
2022/12/04 12:07:50;;;;;;;23.93;12.03;;;3.30;99.90;;;;;;5008081;28;20436;-71
2022/12/04 12:10:21;;;;;;;23.90;11.80;;;3.40;99.90;;;;;;5012423;28;20415;-68
2022/12/04 12:13:44;;;;;;;26.20;13.07;;;3.30;99.90;;;;;;5006446;28;20830;-71
2022/12/04 12:16:27;;;;;;;23.23;13.37;;;3.30;99.90;;;;;;4933397;29;22531;-71
2022/12/04 12:19:17;;;;;;;29.23;14.33;;;3.40;99.90;;;;;;4947705;29;20447;-72
2022/12/04 12:22:16;;;;;;;27.60;13.20;;;3.40;99.90;;;;;;4994749;28;20561;-71
2022/12/04 12:24:55;;;;;;;24.97;13.63;;;3.40;99.90;;;;;;5012756;28;20958;-72
2022/12/04 12:27:42;;;;;;;27.63;14.10;;;3.40;99.90;;;;;;5010619;28;20483;-72
2022/12/04 12:30:16;;;;;;;29.33;13.63;;;3.40;99.90;;;;;;5010575;28;20440;-72
2022/12/04 12:32:49;;;;;;;26.40;13.60;;;3.50;99.90;;;;;;5012073;28;20460;-72
2022/12/04 12:35:27;;;;;;;25.40;13.90;;;3.50;99.90;;;;;;5007309;28;20423;-71
2022/12/04 12:38:00;;;;;;;29.73;14.80;;;3.50;99.90;;;;;;5008007;28;20841;-71
2022/12/04 12:40:38;;;;;;;27.37;14.93;;;3.60;99.90;;;;;;5012212;28;20420;-72
2022/12/04 12:43:25;;;;;;;28.30;13.93;;;3.60;99.90;;;;;;5012313;28;20459;-71
2022/12/04 12:46:29;;;;;;;26.90;14.97;;;3.60;99.90;;;;;;5011988;28;20419;-71
2022/12/04 12:49:06;;;;;;;22.63;14.23;;;3.60;99.90;;;;;;5009748;28;20446;-70
2022/12/04 12:51:53;;;;;;;32.87;15.93;;;3.60;99.90;;;;;;5007442;28;20433;-70
2022/12/04 12:54:36;;;;;;;27.57;13.90;;;3.60;99.90;;;;;;5009652;28;20439;-72
2022/12/04 12:57:40;;;;;;;32.90;15.23;;;3.60;99.90;;;;;;5009661;28;20453;-71
2022/12/04 13:00:14;;;;;;;27.23;16.60;;;3.60;99.90;;;;;;5002150;28;20932;-71
2022/12/04 13:03:02;;;;;;;29.63;18.77;;;3.60;99.90;;;;;;5008193;28;20437;-71
2022/12/04 13:05:39;;;;;;;24.33;14.23;;;3.60;99.90;;;;;;5007337;28;20446;-70
2022/12/04 13:08:09;;;;;;;23.67;14.77;;;3.60;99.90;;;;;;5008749;28;20527;-69
2022/12/04 13:10:57;;;;;;;22.23;13.53;;;3.60;99.90;;;;;;5004226;28;20805;-71
2022/12/04 13:13:26;;;;;;;23.10;11.93;;;3.70;99.90;;;;;;4993716;28;20413;-71
2022/12/04 13:16:02;;;;;;;21.00;11.93;;;3.70;99.90;;;;;;4992251;28;20416;-71
2022/12/04 13:18:32;;;;;;;16.87;10.53;;;3.70;99.90;;;;;;5009598;28;20779;-71
2022/12/04 13:21:05;;;;;;;20.97;11.57;;;3.70;99.90;;;;;;5010774;28;20808;-71
2022/12/04 13:23:58;;;;;;;20.10;12.50;;;3.60;99.90;;;;;;5010670;28;20499;-71
2022/12/04 13:26:52;;;;;;;26.20;13.70;;;3.60;99.90;;;;;;5011424;28;20386;-71
2022/12/04 13:29:44;;;;;;;24.50;14.40;;;3.60;99.90;;;;;;4997109;28;20528;-70
2022/12/04 13:32:57;;;;;;;29.07;13.10;;;3.50;99.90;;;;;;4984509;28;20499;-71
2022/12/04 13:35:41;;;;;;;23.27;12.27;;;3.50;99.90;;;;;;5003428;28;20441;-71
2022/12/04 13:38:44;;;;;;;24.57;15.10;;;3.60;99.90;;;;;;5008692;28;20516;-71
2022/12/04 13:41:18;;;;;;;21.23;13.00;;;3.50;99.90;;;;;;4946924;28;20458;-71
2022/12/04 13:43:49;;;;;;;30.43;17.60;;;3.60;99.90;;;;;;5000666;28;20473;-71
2022/12/04 13:46:29;;;;;;;25.67;14.33;;;3.70;99.90;;;;;;5004785;28;20805;-70
2022/12/04 13:49:25;;;;;;;48.13;28.43;;;3.70;99.90;;;;;;5009605;28;20415;-71
2022/12/04 13:51:51;;;;;;;32.40;18.40;;;3.70;99.90;;;;;;5001953;28;20449;-71
2022/12/04 13:54:24;;;;;;;36.30;21.40;;;3.60;99.90;;;;;;5001798;28;20757;-70
2022/12/04 13:56:55;;;;;;;31.17;18.17;;;3.60;99.90;;;;;;5007774;28;20492;-71
2022/12/04 13:59:27;;;;;;;27.47;15.50;;;3.60;99.90;;;;;;5011385;28;20411;-71
2022/12/04 14:01:58;;;;;;;31.10;14.80;;;3.60;99.90;;;;;;5009878;28;20453;-71
2022/12/04 14:04:28;;;;;;;27.00;13.63;;;3.60;99.90;;;;;;4994039;28;20566;-71
2022/12/04 14:06:57;;;;;;;28.17;14.40;;;3.70;99.90;;;;;;5008479;28;20440;-70
2022/12/04 14:09:31;;;;;;;24.43;14.13;;;3.60;99.90;;;;;;5006277;28;20806;-71
2022/12/04 14:12:01;;;;;;;23.70;13.90;;;3.60;99.90;;;;;;5008642;28;20453;-70
2022/12/04 14:14:35;;;;;;;21.13;13.77;;;3.60;99.90;;;;;;5004109;28;20495;-71
2022/12/04 14:17:02;;;;;;;23.83;12.47;;;3.70;99.90;;;;;;5007520;28;20502;-71
2022/12/04 14:19:31;;;;;;;21.20;12.57;;;3.70;99.90;;;;;;4999457;28;20458;-71
2022/12/04 14:21:58;;;;;;;24.77;13.67;;;3.70;99.90;;;;;;5007884;28;20453;-71
2022/12/04 14:24:37;;;;;;;27.50;13.27;;;3.70;99.90;;;;;;5009026;28;20413;-71
2022/12/04 14:27:52;;;;;;;23.30;14.40;;;3.70;99.90;;;;;;5011253;28;20984;-71
2022/12/04 14:30:31;;;;;;;24.70;13.70;;;3.70;99.90;;;;;;4992442;28;20801;-70
2022/12/04 14:33:20;;;;;;;26.10;14.00;;;3.60;99.90;;;;;;4993554;28;20473;-71
2022/12/04 14:35:57;;;;;;;26.70;15.73;;;3.60;99.90;;;;;;5005833;28;20437;-71
2022/12/04 14:38:24;;;;;;;32.80;16.83;;;3.50;99.90;;;;;;5012305;28;20505;-71
2022/12/04 14:40:52;;;;;;;25.33;14.60;;;3.50;99.90;;;;;;5012389;28;20446;-70
2022/12/04 14:43:21;;;;;;;26.30;13.90;;;3.50;99.90;;;;;;5014368;28;20473;-71
2022/12/04 14:45:56;;;;;;;40.77;24.80;;;3.50;99.90;;;;;;5010116;28;20441;-71